createdAt,value
2019-04-30T00:00:18.195Z,99.90
2019-04-30T00:02:59.161Z,99.90
2019-04-30T00:05:27.592Z,99.90
2019-04-30T00:07:58.453Z,99.90
2019-04-30T00:10:29.093Z,99.90
2019-04-30T00:12:56.591Z,99.90
2019-04-30T00:15:25.724Z,99.90
2019-04-30T00:18:00.215Z,99.90
2019-04-30T00:20:25.573Z,99.90
2019-04-30T00:22:55.294Z,99.90
2019-04-30T00:25:27.011Z,99.90
2019-04-30T00:27:55.987Z,99.90
2019-04-30T00:30:25.209Z,99.90
2019-04-30T00:32:55.593Z,99.90
2019-04-30T00:35:25.406Z,99.90
2019-04-30T00:37:57.638Z,99.90
2019-04-30T00:40:26.732Z,99.90
2019-04-30T00:42:55.954Z,99.90
2019-04-30T00:45:25.182Z,99.90
2019-04-30T00:47:53.744Z,99.90
2019-04-30T00:50:22.194Z,99.90
2019-04-30T00:52:50.635Z,99.90
2019-04-30T00:55:19.077Z,99.90
2019-04-30T00:57:47.663Z,99.90
2019-04-30T01:00:25.182Z,99.90
2019-04-30T01:02:55.569Z,99.90
2019-04-30T01:05:25.454Z,99.90
2019-04-30T01:07:55.037Z,99.90
2019-04-30T01:10:24.867Z,99.90
2019-04-30T01:12:53.763Z,99.90
2019-04-30T01:15:22.338Z,99.90
2019-04-30T01:17:53.711Z,99.90
2019-04-30T01:20:23.977Z,99.90
2019-04-30T01:22:52.889Z,99.90
2019-04-30T01:25:21.520Z,99.90
2019-04-30T01:27:51.407Z,99.90
2019-04-30T01:30:22.729Z,99.90
2019-04-30T01:32:56.441Z,99.90
2019-04-30T01:35:23.863Z,99.90
2019-04-30T01:37:50.586Z,99.90
2019-04-30T01:40:19.166Z,99.90
2019-04-30T01:42:50.760Z,99.90
2019-04-30T01:45:18.751Z,99.90
2019-04-30T01:47:49.484Z,99.90
2019-04-30T01:50:19.258Z,99.90
2019-04-30T01:52:53.681Z,99.90
2019-04-30T01:55:25.083Z,99.90
2019-04-30T01:58:01.040Z,99.90
2019-04-30T02:00:31.136Z,99.90
2019-04-30T02:02:59.566Z,99.90
2019-04-30T02:05:28.766Z,99.90
2019-04-30T02:07:58.513Z,99.90
2019-04-30T02:10:28.514Z,99.90
2019-04-30T02:12:58.935Z,99.90
2019-04-30T02:15:29.043Z,99.90
2019-04-30T02:17:58.700Z,99.90
2019-04-30T02:20:28.762Z,99.90
2019-04-30T02:22:58.619Z,99.90
2019-04-30T02:25:29.357Z,99.90
2019-04-30T02:27:59.037Z,99.90
2019-04-30T02:30:30.512Z,99.90
2019-04-30T02:33:00.490Z,99.90
2019-04-30T02:35:45.729Z,99.90
2019-04-30T02:38:15.799Z,99.90
2019-04-30T02:40:44.997Z,99.90
2019-04-30T02:43:14.464Z,99.90
2019-04-30T02:45:46.255Z,99.90
2019-04-30T02:48:16.335Z,99.90
2019-04-30T02:50:49.010Z,99.90
2019-04-30T02:53:51.382Z,99.90
2019-04-30T02:56:20.612Z,99.90
2019-04-30T02:58:50.636Z,99.90
2019-04-30T03:01:20.275Z,99.90
2019-04-30T03:03:50.100Z,99.90
2019-04-30T03:06:20.424Z,99.90
2019-04-30T03:08:51.055Z,99.90
2019-04-30T03:11:20.663Z,99.90
2019-04-30T03:13:49.746Z,99.90
2019-04-30T03:16:20.796Z,99.90
2019-04-30T03:18:53.934Z,99.90
2019-04-30T03:21:42.127Z,99.90
2019-04-30T03:24:11.408Z,99.90
2019-04-30T03:26:40.393Z,99.90
2019-04-30T03:29:11.204Z,99.90
2019-04-30T03:31:44.438Z,99.90
2019-04-30T03:34:16.987Z,99.90
2019-04-30T03:36:40.375Z,99.90
2019-04-30T03:39:10.858Z,99.90
2019-04-30T03:41:41.219Z,99.90
2019-04-30T03:44:18.560Z,99.90
2019-04-30T03:46:40.298Z,99.90
2019-04-30T03:49:12.456Z,99.90
2019-04-30T03:51:40.293Z,99.90
2019-04-30T03:54:10.323Z,99.90
2019-04-30T03:56:39.728Z,99.90
2019-04-30T03:59:10.517Z,99.90
2019-04-30T04:01:42.966Z,99.90
2019-04-30T04:04:22.106Z,99.90
2019-04-30T04:07:00.952Z,99.90
2019-04-30T04:09:40.130Z,99.90
2019-04-30T04:12:24.434Z,99.90
2019-04-30T04:14:53.055Z,99.90
2019-04-30T04:17:22.029Z,99.90
2019-04-30T04:19:51.317Z,99.90
2019-04-30T04:22:20.894Z,99.90
2019-04-30T04:24:50.557Z,99.90
2019-04-30T04:27:19.650Z,99.90
2019-04-30T04:29:51.181Z,99.90
2019-04-30T04:32:23.520Z,99.90
2019-04-30T04:34:50.499Z,99.90
2019-04-30T04:37:19.862Z,99.90
2019-04-30T04:39:50.045Z,99.90
2019-04-30T04:42:19.582Z,99.90
2019-04-30T04:44:50.193Z,99.90
2019-04-30T04:47:19.888Z,99.90
2019-04-30T04:49:53.159Z,99.90
2019-04-30T04:52:21.393Z,99.90
2019-04-30T04:54:50.544Z,99.90
2019-04-30T04:57:22.718Z,99.90
2019-04-30T04:59:50.077Z,99.90
2019-04-30T05:02:29.766Z,99.90
2019-04-30T05:04:59.930Z,99.90
2019-04-30T05:07:28.820Z,99.90
2019-04-30T05:10:00.532Z,99.90
2019-04-30T05:12:29.550Z,99.90
2019-04-30T05:14:59.565Z,99.90
2019-04-30T05:17:29.696Z,99.90
2019-04-30T05:19:58.690Z,99.90
2019-04-30T05:22:29.191Z,99.90
2019-04-30T05:24:58.919Z,99.90
2019-04-30T05:27:27.626Z,99.90
2019-04-30T05:29:56.155Z,99.90
2019-04-30T05:32:24.653Z,99.90
2019-04-30T05:34:53.090Z,99.90
2019-04-30T05:37:22.523Z,99.90
2019-04-30T05:39:51.049Z,99.90
2019-04-30T05:42:19.512Z,99.90
2019-04-30T05:44:49.734Z,99.90
2019-04-30T05:47:19.586Z,99.90
2019-04-30T05:49:48.995Z,99.90
2019-04-30T05:52:19.937Z,99.90
2019-04-30T05:54:48.760Z,99.90
2019-04-30T05:57:19.611Z,99.90
2019-04-30T05:59:48.744Z,99.90
2019-04-30T06:02:19.326Z,99.90
2019-04-30T06:04:48.929Z,99.90
2019-04-30T06:07:18.851Z,99.90
2019-04-30T06:09:56.535Z,99.90
2019-04-30T06:12:28.391Z,99.90
2019-04-30T06:15:13.746Z,99.90
2019-04-30T06:17:43.895Z,99.90
2019-04-30T06:20:18.270Z,99.90
2019-04-30T06:22:42.732Z,99.90
2019-04-30T06:25:11.257Z,99.90
2019-04-30T06:27:39.763Z,99.90
2019-04-30T06:30:11.838Z,99.90
2019-04-30T06:32:39.530Z,99.90
2019-04-30T06:35:09.179Z,99.90
2019-04-30T06:37:39.118Z,99.90
2019-04-30T06:40:09.449Z,99.90
2019-04-30T06:42:39.301Z,99.90
2019-04-30T06:45:09.211Z,99.90
2019-04-30T06:47:38.940Z,99.90
2019-04-30T06:50:09.695Z,99.90
2019-04-30T06:52:38.984Z,99.90
2019-04-30T06:55:09.469Z,99.90
2019-04-30T06:57:38.374Z,99.90
2019-04-30T07:00:09.820Z,99.90
2019-04-30T07:02:39.295Z,99.90
2019-04-30T07:05:10.043Z,99.90
2019-04-30T07:07:41.725Z,99.90
2019-04-30T07:10:23.691Z,99.90
2019-04-30T07:12:58.849Z,99.90
2019-04-30T07:15:26.876Z,99.90
2019-04-30T07:17:55.322Z,99.90
2019-04-30T07:20:23.754Z,99.90
2019-04-30T07:22:58.806Z,99.90
2019-04-30T07:25:22.406Z,99.20
2019-04-30T07:27:50.848Z,98.10
2019-04-30T07:30:19.379Z,96.60
2019-04-30T07:32:48.849Z,96.20
2019-04-30T07:35:19.304Z,95.50
2019-04-30T07:37:49.476Z,95.10
2019-04-30T07:40:19.018Z,94.30
2019-04-30T07:42:49.222Z,93.80
2019-04-30T07:45:19.407Z,93.80
2019-04-30T07:47:49.483Z,92.40
2019-04-30T07:50:20.664Z,92.50
2019-04-30T07:53:01.619Z,93.00
2019-04-30T07:55:19.657Z,93.60
2019-04-30T07:57:50.662Z,94.00
2019-04-30T08:00:19.370Z,93.30
2019-04-30T08:02:52.337Z,94.10
2019-04-30T08:05:25.134Z,94.20
2019-04-30T08:07:53.702Z,94.60
2019-04-30T08:10:22.257Z,93.60
2019-04-30T08:12:51.363Z,93.70
2019-04-30T08:15:20.953Z,92.00
2019-04-30T08:18:02.194Z,91.20
2019-04-30T08:20:19.812Z,90.30
2019-04-30T08:22:49.438Z,89.70
2019-04-30T08:25:19.939Z,89.00
2019-04-30T08:27:49.274Z,87.20
2019-04-30T08:30:23.945Z,86.70
2019-04-30T08:32:49.980Z,84.50
2019-04-30T08:35:19.719Z,78.90
2019-04-30T08:37:49.739Z,76.60
2019-04-30T08:40:19.073Z,75.80
2019-04-30T08:42:49.530Z,72.90
2019-04-30T08:45:19.648Z,71.00
2019-04-30T08:47:49.299Z,67.70
2019-04-30T08:50:20.023Z,66.70
2019-04-30T08:52:49.901Z,64.20
2019-04-30T08:55:21.967Z,62.50
2019-04-30T08:57:50.044Z,61.40
2019-04-30T09:00:19.528Z,61.50
2019-04-30T09:02:49.189Z,58.40
2019-04-30T09:05:19.517Z,57.70
2019-04-30T09:07:48.660Z,56.20
2019-04-30T09:10:19.100Z,57.00
2019-04-30T09:12:51.672Z,56.80
2019-04-30T09:15:18.815Z,56.90
2019-04-30T09:18:00.276Z,54.90
2019-04-30T09:20:19.314Z,51.10
2019-04-30T09:22:49.604Z,50.50
2019-04-30T09:25:19.433Z,50.80
2019-04-30T09:27:48.778Z,51.30
2019-04-30T09:30:18.856Z,50.50
2019-04-30T09:32:47.498Z,49.80
2019-04-30T09:35:15.950Z,48.20
2019-04-30T09:37:44.386Z,46.70
2019-04-30T09:40:18.261Z,47.30
2019-04-30T09:42:43.222Z,48.50
2019-04-30T09:45:11.769Z,47.70
2019-04-30T09:47:42.010Z,47.30
2019-04-30T09:50:11.988Z,46.80
2019-04-30T09:52:40.807Z,47.00
2019-04-30T09:55:10.093Z,45.20
2019-04-30T09:57:39.084Z,45.00
2019-04-30T10:00:09.478Z,45.70
2019-04-30T10:02:38.900Z,45.50
2019-04-30T10:05:08.010Z,44.20
2019-04-30T10:07:36.797Z,44.90
2019-04-30T10:10:09.401Z,43.60
2019-04-30T10:12:36.857Z,43.30
2019-04-30T10:15:09.139Z,43.50
2019-04-30T10:17:39.451Z,43.30
2019-04-30T10:20:09.445Z,43.10
2019-04-30T10:22:39.961Z,43.70
2019-04-30T10:25:09.985Z,42.20
2019-04-30T10:27:38.815Z,42.30
2019-04-30T10:30:09.858Z,42.50
2019-04-30T10:32:38.397Z,41.40
2019-04-30T10:35:07.183Z,41.60
2019-04-30T10:37:35.651Z,41.20
2019-04-30T10:40:06.317Z,41.20
2019-04-30T10:42:35.004Z,40.90
2019-04-30T10:45:05.031Z,41.20
2019-04-30T10:47:33.490Z,41.60
2019-04-30T10:50:02.003Z,40.50
2019-04-30T10:52:30.458Z,40.10
2019-04-30T10:54:59.571Z,39.80
2019-04-30T10:57:28.518Z,40.80
2019-04-30T10:59:58.716Z,40.60
2019-04-30T11:02:28.812Z,39.70
2019-04-30T11:04:57.457Z,39.90
2019-04-30T11:07:25.906Z,40.10
2019-04-30T11:09:54.358Z,39.80
2019-04-30T11:12:22.887Z,38.00
2019-04-30T11:14:51.315Z,38.00
2019-04-30T11:17:20.081Z,37.40
2019-04-30T11:19:49.267Z,38.50
2019-04-30T11:22:18.012Z,38.80
2019-04-30T11:24:56.577Z,39.40
2019-04-30T11:27:17.138Z,39.30
2019-04-30T11:29:46.200Z,39.30
2019-04-30T11:32:19.662Z,37.80
2019-04-30T11:34:48.298Z,37.70
2019-04-30T11:37:16.818Z,39.00
2019-04-30T11:39:45.268Z,38.00
2019-04-30T11:42:13.816Z,38.20
2019-04-30T11:44:42.251Z,38.90
2019-04-30T11:47:19.710Z,38.40
2019-04-30T11:49:48.137Z,37.60
2019-04-30T11:52:16.585Z,37.50
2019-04-30T11:54:51.383Z,37.30
2019-04-30T11:57:15.288Z,37.30
2019-04-30T11:59:43.745Z,36.60
2019-04-30T12:02:14.878Z,37.90
2019-04-30T12:04:43.325Z,38.30
2019-04-30T12:07:19.483Z,38.30
2019-04-30T12:09:59.571Z,37.40
2019-04-30T12:12:28.950Z,38.40
2019-04-30T12:14:59.591Z,39.10
2019-04-30T12:17:27.623Z,39.60
2019-04-30T12:19:56.093Z,40.30
2019-04-30T12:22:24.543Z,39.40
2019-04-30T12:25:02.525Z,38.80
2019-04-30T12:27:23.165Z,39.20
2019-04-30T12:29:51.617Z,38.40
2019-04-30T12:32:21.382Z,39.00
2019-04-30T12:34:50.005Z,39.40
2019-04-30T12:37:19.063Z,37.70
2019-04-30T12:39:49.064Z,36.80
2019-04-30T12:42:18.903Z,37.70
2019-04-30T12:44:49.443Z,38.10
2019-04-30T12:47:20.060Z,40.00
2019-04-30T12:50:01.333Z,38.20
2019-04-30T12:52:37.221Z,39.10
2019-04-30T12:55:15.186Z,37.50
2019-04-30T12:57:42.537Z,38.60
2019-04-30T13:00:12.456Z,39.00
2019-04-30T13:02:41.151Z,36.90
2019-04-30T13:05:10.038Z,37.00
2019-04-30T13:07:40.232Z,37.80
2019-04-30T13:10:09.675Z,37.10
2019-04-30T13:12:39.096Z,34.70
2019-04-30T13:15:09.731Z,34.20
2019-04-30T13:17:38.182Z,32.90
2019-04-30T13:20:18.145Z,32.80
2019-04-30T13:22:38.867Z,33.10
2019-04-30T13:25:09.334Z,30.90
2019-04-30T13:27:39.548Z,29.90
2019-04-30T13:30:15.916Z,27.90
2019-04-30T13:32:45.977Z,28.40
2019-04-30T13:35:14.501Z,28.80
2019-04-30T13:37:48.948Z,28.90
2019-04-30T13:40:35.028Z,29.20
2019-04-30T13:43:05.181Z,28.50
2019-04-30T13:45:33.649Z,29.00
2019-04-30T13:48:02.099Z,28.90
2019-04-30T13:50:30.568Z,28.90
2019-04-30T13:52:59.091Z,29.10
2019-04-30T13:55:30.496Z,28.90
2019-04-30T13:57:57.791Z,29.30
2019-04-30T14:00:29.676Z,28.80
2019-04-30T14:03:05.591Z,28.90
2019-04-30T14:05:34.071Z,28.40
2019-04-30T14:08:07.173Z,27.80
2019-04-30T14:10:36.882Z,27.50
2019-04-30T14:13:06.888Z,28.20
2019-04-30T14:15:36.157Z,28.00
2019-04-30T14:18:04.698Z,27.90
2019-04-30T14:20:33.195Z,27.90
2019-04-30T14:23:01.677Z,28.30
2019-04-30T14:25:30.243Z,31.40
2019-04-30T14:27:59.270Z,32.40
2019-04-30T14:30:29.271Z,32.70
2019-04-30T14:32:59.322Z,32.30
2019-04-30T14:35:28.669Z,32.20
2019-04-30T14:37:59.459Z,32.50
2019-04-30T14:40:29.791Z,32.20
2019-04-30T14:43:02.224Z,30.60
2019-04-30T14:45:38.915Z,30.60
2019-04-30T14:48:12.638Z,30.80
2019-04-30T14:50:41.526Z,30.60
2019-04-30T14:53:20.610Z,31.30
2019-04-30T14:56:08.339Z,30.90
2019-04-30T14:58:44.553Z,29.10
2019-04-30T15:01:14.655Z,28.60
2019-04-30T15:03:43.101Z,28.80
2019-04-30T15:06:11.552Z,29.20
2019-04-30T15:08:39.994Z,28.70
2019-04-30T15:11:09.087Z,28.70
2019-04-30T15:13:39.379Z,28.70
2019-04-30T15:16:08.006Z,28.70
2019-04-30T15:18:36.458Z,29.40
2019-04-30T15:21:04.888Z,30.40
2019-04-30T15:23:35.033Z,30.40
2019-04-30T15:26:03.490Z,30.30
2019-04-30T15:28:32.249Z,31.00
2019-04-30T15:31:01.167Z,30.50
2019-04-30T15:33:34.263Z,29.00
2019-04-30T15:36:03.558Z,28.80
2019-04-30T15:38:49.873Z,29.20
2019-04-30T15:41:19.290Z,29.20
2019-04-30T15:43:47.741Z,28.80
2019-04-30T15:46:16.273Z,28.60
2019-04-30T15:48:44.716Z,28.50
2019-04-30T15:51:15.451Z,28.10
2019-04-30T15:53:43.322Z,27.80
2019-04-30T15:56:11.770Z,28.00
2019-04-30T15:58:44.802Z,28.20
2019-04-30T16:01:14.007Z,28.20
2019-04-30T16:03:44.106Z,27.80
2019-04-30T16:06:12.545Z,27.20
2019-04-30T16:08:45.334Z,27.20
2019-04-30T16:11:15.389Z,28.00
2019-04-30T16:14:01.473Z,27.40
2019-04-30T16:16:31.537Z,27.80
2019-04-30T16:19:00.041Z,28.00
2019-04-30T16:21:29.284Z,28.10
2019-04-30T16:23:58.510Z,27.50
2019-04-30T16:26:28.985Z,27.60
2019-04-30T16:28:58.609Z,27.70
2019-04-30T16:31:29.023Z,27.70
2019-04-30T16:33:57.648Z,27.90
2019-04-30T16:36:26.140Z,28.50
2019-04-30T16:38:54.584Z,28.60
2019-04-30T16:41:31.548Z,28.60
2019-04-30T16:43:53.265Z,28.40
2019-04-30T16:46:21.865Z,28.00
2019-04-30T16:48:50.447Z,28.40
2019-04-30T16:51:18.976Z,28.40
2019-04-30T16:53:48.655Z,28.20
2019-04-30T16:56:18.596Z,28.20
2019-04-30T16:58:59.800Z,28.20
2019-04-30T17:01:29.128Z,28.50
2019-04-30T17:04:01.841Z,28.90
2019-04-30T17:06:34.581Z,29.10
2019-04-30T17:09:10.249Z,29.20
2019-04-30T17:11:43.601Z,29.10
2019-04-30T17:14:13.780Z,29.40
2019-04-30T17:16:42.260Z,29.50
2019-04-30T17:19:10.778Z,29.50
2019-04-30T17:21:39.232Z,29.70
2019-04-30T17:24:08.781Z,29.80
2019-04-30T17:26:39.125Z,30.00
2019-04-30T17:29:09.507Z,30.10
2019-04-30T17:31:38.101Z,30.60
2019-04-30T17:34:06.538Z,30.30
2019-04-30T17:36:35.015Z,30.00
2019-04-30T17:39:05.075Z,30.40
2019-04-30T17:41:33.542Z,30.90
2019-04-30T17:44:01.980Z,31.20
2019-04-30T17:46:30.485Z,31.10
2019-04-30T17:48:59.338Z,31.50
2019-04-30T17:51:27.852Z,31.90
2019-04-30T17:54:14.893Z,32.20
2019-04-30T17:56:44.583Z,32.50
2019-04-30T17:59:13.464Z,32.80
2019-04-30T18:01:43.824Z,33.20
2019-04-30T18:04:12.339Z,33.60
2019-04-30T18:06:40.781Z,33.80
2019-04-30T18:09:11.046Z,33.90
2019-04-30T18:11:39.685Z,34.30
2019-04-30T18:14:08.800Z,34.70
2019-04-30T18:16:38.699Z,34.70
2019-04-30T18:19:11.885Z,35.00
2019-04-30T18:21:59.685Z,35.30
2019-04-30T18:24:45.910Z,35.30
2019-04-30T18:27:16.018Z,35.60
2019-04-30T18:29:44.557Z,35.80
2019-04-30T18:32:13.014Z,36.10
2019-04-30T18:34:41.454Z,36.70
2019-04-30T18:37:09.897Z,37.00
2019-04-30T18:39:38.353Z,37.60
2019-04-30T18:42:06.817Z,37.90
2019-04-30T18:44:35.273Z,38.40
2019-04-30T18:47:03.730Z,38.70
2019-04-30T18:49:32.180Z,39.30
2019-04-30T18:52:00.614Z,39.40
2019-04-30T18:54:29.106Z,39.60
2019-04-30T18:56:58.919Z,40.00
2019-04-30T18:59:27.515Z,40.50
2019-04-30T19:01:56.037Z,40.40
2019-04-30T19:04:24.517Z,40.70
2019-04-30T19:06:54.573Z,40.90
2019-04-30T19:09:24.830Z,41.30
2019-04-30T19:11:54.924Z,41.30
2019-04-30T19:14:29.405Z,41.90
2019-04-30T19:16:59.680Z,41.40
2019-04-30T19:19:29.798Z,40.60
2019-04-30T19:21:58.654Z,40.60
2019-04-30T19:24:27.170Z,40.80
2019-04-30T19:26:55.627Z,40.50
2019-04-30T19:29:24.137Z,40.70
2019-04-30T19:31:52.573Z,40.70
2019-04-30T19:34:21.052Z,40.80
2019-04-30T19:36:49.503Z,41.50
2019-04-30T19:39:19.504Z,41.20
2019-04-30T19:41:49.009Z,41.30
2019-04-30T19:44:20.655Z,41.70
2019-04-30T19:46:48.765Z,41.70
2019-04-30T19:49:19.123Z,42.20
2019-04-30T19:51:49.545Z,42.20
2019-04-30T19:54:19.242Z,42.00
2019-04-30T19:56:47.732Z,42.80
2019-04-30T19:59:16.209Z,43.10
2019-04-30T20:01:44.668Z,43.60
2019-04-30T20:04:13.539Z,43.50
2019-04-30T20:06:42.009Z,43.50
2019-04-30T20:09:10.481Z,43.30
2019-04-30T20:11:39.800Z,43.00
2019-04-30T20:14:10.424Z,42.70
2019-04-30T20:16:40.295Z,43.10
2019-04-30T20:19:09.225Z,44.20
2019-04-30T20:21:48.170Z,43.60
2019-04-30T20:24:07.907Z,44.20
2019-04-30T20:26:36.381Z,44.20
2019-04-30T20:29:04.821Z,44.30
2019-04-30T20:31:33.275Z,44.40
2019-04-30T20:34:01.783Z,44.30
2019-04-30T20:36:30.301Z,44.10
2019-04-30T20:39:00.397Z,44.10
2019-04-30T20:41:30.036Z,44.40
2019-04-30T20:43:58.948Z,44.80
2019-04-30T20:46:32.591Z,45.80
2019-04-30T20:48:59.313Z,45.50
2019-04-30T20:51:29.072Z,45.60
2019-04-30T20:53:59.222Z,45.60
2019-04-30T20:56:29.164Z,45.20
2019-04-30T20:59:02.601Z,45.20
2019-04-30T21:01:29.404Z,44.80
2019-04-30T21:03:58.073Z,44.60
2019-04-30T21:06:26.584Z,43.30
2019-04-30T21:08:55.025Z,43.80
2019-04-30T21:11:23.472Z,43.40
2019-04-30T21:13:51.932Z,43.10
2019-04-30T21:16:20.393Z,41.70
2019-04-30T21:18:48.839Z,41.30
2019-04-30T21:21:18.866Z,41.10
2019-04-30T21:23:49.155Z,40.80
2019-04-30T21:26:19.494Z,40.60
2019-04-30T21:28:49.404Z,40.90
2019-04-30T21:31:35.593Z,41.50
2019-04-30T21:34:19.606Z,41.40
2019-04-30T21:36:49.572Z,41.70
2019-04-30T21:39:19.961Z,42.00
2019-04-30T21:41:49.476Z,42.20
2019-04-30T21:44:17.997Z,42.10
2019-04-30T21:46:46.472Z,42.30
2019-04-30T21:49:14.955Z,42.50
2019-04-30T21:51:43.426Z,42.60
2019-04-30T21:54:11.869Z,42.90
2019-04-30T21:56:40.330Z,43.20
2019-04-30T21:59:08.769Z,43.20
2019-04-30T22:01:37.355Z,43.30
2019-04-30T22:04:05.798Z,43.50
2019-04-30T22:06:34.278Z,43.80
2019-04-30T22:09:02.777Z,43.70
2019-04-30T22:11:31.259Z,44.10
2019-04-30T22:13:59.701Z,43.90
2019-04-30T22:16:29.730Z,43.90
2019-04-30T22:18:58.247Z,44.10
2019-04-30T22:21:28.315Z,43.70
2019-04-30T22:23:56.877Z,44.20
2019-04-30T22:26:25.343Z,44.50
2019-04-30T22:28:53.793Z,44.70
2019-04-30T22:31:22.241Z,45.20
2019-04-30T22:33:50.711Z,46.10
2019-04-30T22:36:26.563Z,47.80
2019-04-30T22:38:56.650Z,46.90
2019-04-30T22:41:26.735Z,46.50
2019-04-30T22:43:55.193Z,46.10
2019-04-30T22:46:23.629Z,46.50
2019-04-30T22:48:52.087Z,47.20
2019-04-30T22:51:20.525Z,47.50
2019-04-30T22:53:48.988Z,47.30
2019-04-30T22:56:17.483Z,47.30
2019-04-30T22:58:45.923Z,47.50
2019-04-30T23:01:24.718Z,47.50
2019-04-30T23:03:54.809Z,47.50
2019-04-30T23:06:23.248Z,47.20
2019-04-30T23:08:51.694Z,47.70
2019-04-30T23:11:20.150Z,47.70
2019-04-30T23:13:49.309Z,48.20
2019-04-30T23:16:17.753Z,47.80
2019-04-30T23:18:46.210Z,47.70
2019-04-30T23:21:14.646Z,47.70
2019-04-30T23:23:43.182Z,47.80
2019-04-30T23:26:11.623Z,47.40
2019-04-30T23:28:40.085Z,47.60
2019-04-30T23:31:08.604Z,49.70
2019-04-30T23:33:37.130Z,54.00
2019-04-30T23:36:05.637Z,56.80
2019-04-30T23:38:34.090Z,58.40
2019-04-30T23:41:02.565Z,60.20
2019-04-30T23:43:31.000Z,60.20
2019-04-30T23:45:59.456Z,62.40
2019-04-30T23:48:27.885Z,64.20
2019-04-30T23:50:56.339Z,65.20
2019-04-30T23:53:24.773Z,66.60
2019-04-30T23:55:53.247Z,67.50
2019-04-30T23:58:21.697Z,69.20
